createdAt,value
2022-11-28T00:02:20.221Z,3.13
2022-11-28T00:04:50.221Z,3.13
2022-11-28T00:07:17.128Z,3.10
2022-11-28T00:09:43.750Z,3.30
2022-11-28T00:12:10.346Z,3.00
2022-11-28T00:14:36.998Z,3.20
2022-11-28T00:17:03.684Z,3.20
2022-11-28T00:19:30.312Z,3.17
2022-11-28T00:21:56.938Z,3.70
2022-11-28T00:24:23.616Z,3.27
2022-11-28T00:26:50.241Z,3.53
2022-11-28T00:29:16.881Z,3.33
2022-11-28T00:31:44.142Z,3.70
2022-11-28T00:34:12.964Z,5.23
2022-11-28T00:36:39.636Z,4.87
2022-11-28T00:39:06.529Z,5.10
2022-11-28T00:41:36.192Z,5.03
2022-11-28T00:44:02.876Z,6.30
2022-11-28T00:46:29.660Z,5.60
2022-11-28T00:48:57.678Z,5.73
2022-11-28T00:51:25.979Z,5.37
2022-11-28T00:53:53.204Z,5.70
2022-11-28T00:56:21.533Z,5.30
2022-11-28T00:58:49.838Z,5.57
2022-11-28T01:01:18.302Z,5.10
2022-11-28T01:03:45.480Z,5.60
2022-11-28T01:06:20.452Z,4.47
2022-11-28T01:08:47.268Z,4.40
2022-11-28T01:11:14.175Z,4.83
2022-11-28T01:13:41.001Z,4.37
2022-11-28T01:16:08.582Z,4.10
2022-11-28T01:18:35.765Z,4.43
2022-11-28T01:21:02.471Z,3.87
2022-11-28T01:23:29.151Z,3.33
2022-11-28T01:25:55.789Z,3.20
2022-11-28T01:28:22.479Z,3.07
2022-11-28T01:30:49.136Z,2.73
2022-11-28T01:33:15.759Z,3.43
2022-11-28T01:35:42.429Z,3.50
2022-11-28T01:38:09.223Z,3.93
2022-11-28T01:40:35.822Z,2.90
2022-11-28T01:43:02.487Z,3.73
2022-11-28T01:45:31.221Z,3.30
2022-11-28T01:48:00.174Z,2.97
2022-11-28T01:50:27.302Z,3.17
2022-11-28T01:52:59.487Z,3.47
2022-11-28T01:55:27.404Z,3.00
2022-11-28T01:57:55.382Z,3.40
2022-11-28T02:00:22.450Z,3.03
2022-11-28T02:02:52.209Z,3.00
2022-11-28T02:05:20.171Z,3.00
2022-11-28T02:07:47.556Z,3.20
2022-11-28T02:10:16.459Z,3.10
2022-11-28T02:13:01.958Z,3.40
2022-11-28T02:15:47.199Z,3.03
2022-11-28T02:18:19.626Z,3.17
2022-11-28T02:21:09.472Z,2.93
2022-11-28T02:23:45.079Z,2.70
2022-11-28T02:26:17.802Z,2.90
2022-11-28T02:28:44.488Z,3.63
2022-11-28T02:31:36.636Z,3.03
2022-11-28T02:34:05.914Z,2.80
2022-11-28T02:36:35.747Z,3.30
2022-11-28T02:39:05.470Z,3.33
2022-11-28T02:41:42.207Z,2.93
2022-11-28T02:44:08.811Z,3.57
2022-11-28T02:46:46.419Z,3.20
2022-11-28T02:49:16.986Z,3.60
2022-11-28T02:52:10.129Z,4.03
2022-11-28T02:54:38.311Z,3.73
2022-11-28T02:57:05.643Z,4.00
2022-11-28T02:59:32.289Z,4.33
2022-11-28T03:01:59.609Z,4.67
2022-11-28T03:04:31.766Z,3.90
2022-11-28T03:07:17.014Z,4.47
2022-11-28T03:09:57.110Z,4.17
2022-11-28T03:12:37.188Z,4.90
2022-11-28T03:15:06.237Z,4.40
2022-11-28T03:17:41.873Z,5.03
2022-11-28T03:20:08.499Z,6.10
2022-11-28T03:22:35.129Z,5.30
2022-11-28T03:25:22.069Z,9.50
2022-11-28T03:27:54.051Z,13.77
2022-11-28T03:30:37.340Z,12.83
2022-11-28T03:33:04.349Z,8.60
2022-11-28T03:35:33.087Z,6.10
2022-11-28T03:38:19.964Z,6.03
2022-11-28T03:40:48.467Z,6.00
2022-11-28T03:43:20.539Z,6.00
2022-11-28T03:45:49.120Z,5.60
2022-11-28T03:48:21.528Z,5.07
2022-11-28T03:50:56.443Z,5.33
2022-11-28T03:53:27.074Z,5.10
2022-11-28T03:56:00.234Z,4.80
2022-11-28T03:58:30.425Z,5.57
2022-11-28T04:01:08.573Z,5.17
2022-11-28T04:03:40.551Z,5.63
2022-11-28T04:06:19.247Z,5.20
2022-11-28T04:08:49.999Z,4.43
2022-11-28T04:11:19.627Z,5.07
2022-11-28T04:13:53.241Z,5.10
2022-11-28T04:16:19.876Z,4.57
2022-11-28T04:19:00.091Z,4.30
2022-11-28T04:21:32.169Z,3.90
2022-11-28T04:24:02.320Z,3.87
2022-11-28T04:26:36.292Z,4.13
2022-11-28T04:29:06.348Z,4.60
2022-11-28T04:31:34.101Z,4.93
2022-11-28T04:34:03.380Z,4.60
2022-11-28T04:36:31.058Z,4.23
2022-11-28T04:38:59.013Z,4.97
2022-11-28T04:41:32.387Z,4.80
2022-11-28T04:44:22.165Z,4.67
2022-11-28T04:46:51.234Z,4.83
2022-11-28T04:49:17.971Z,4.37
2022-11-28T04:52:03.632Z,5.10
2022-11-28T04:54:45.676Z,4.77
2022-11-28T04:57:24.489Z,6.10
2022-11-28T04:59:51.633Z,4.73
2022-11-28T05:02:19.644Z,5.00
2022-11-28T05:04:46.480Z,4.70
2022-11-28T05:07:13.448Z,4.83
2022-11-28T05:09:40.219Z,5.20
2022-11-28T05:12:07.043Z,5.40
2022-11-28T05:14:33.780Z,5.23
2022-11-28T05:17:00.452Z,5.67
2022-11-28T05:19:27.136Z,5.20
2022-11-28T05:21:53.865Z,5.47
2022-11-28T05:24:22.348Z,5.73
2022-11-28T05:26:49.447Z,5.77
2022-11-28T05:29:16.219Z,5.70
2022-11-28T05:31:42.964Z,5.90
2022-11-28T05:34:09.843Z,5.70
2022-11-28T05:36:36.543Z,5.37
2022-11-28T05:39:03.815Z,5.33
2022-11-28T05:41:31.862Z,5.70
2022-11-28T05:43:59.309Z,5.90
2022-11-28T05:46:26.354Z,5.33
2022-11-28T05:48:53.045Z,6.37
2022-11-28T05:51:19.910Z,6.13
2022-11-28T05:53:46.595Z,6.27
2022-11-28T05:56:14.724Z,6.07
2022-11-28T05:58:41.422Z,5.57
2022-11-28T06:01:13.869Z,6.40
2022-11-28T06:03:40.780Z,5.87
2022-11-28T06:06:14.826Z,6.50
2022-11-28T06:08:42.176Z,6.70
2022-11-28T06:11:09.164Z,6.63
2022-11-28T06:13:36.278Z,6.07
2022-11-28T06:16:03.038Z,6.40
2022-11-28T06:18:29.857Z,6.07
2022-11-28T06:20:56.600Z,5.87
2022-11-28T06:23:23.347Z,5.90
2022-11-28T06:25:50.064Z,5.63
2022-11-28T06:28:16.757Z,5.90
2022-11-28T06:30:43.656Z,5.70
2022-11-28T06:33:10.371Z,5.80
2022-11-28T06:35:37.151Z,5.83
2022-11-28T06:38:03.767Z,6.27
2022-11-28T06:40:30.677Z,6.10
2022-11-28T06:42:57.358Z,5.83
2022-11-28T06:45:24.013Z,5.93
2022-11-28T06:47:50.816Z,8.97
2022-11-28T06:50:17.565Z,6.17
2022-11-28T06:52:44.284Z,6.37
2022-11-28T06:55:11.011Z,6.73
2022-11-28T06:57:39.033Z,5.83
2022-11-28T07:00:06.166Z,7.40
2022-11-28T07:02:32.970Z,7.67
2022-11-28T07:04:59.694Z,9.93
2022-11-28T07:07:26.481Z,7.97
2022-11-28T07:09:53.321Z,8.30
2022-11-28T07:12:20.037Z,7.30
2022-11-28T07:14:46.714Z,6.00
2022-11-28T07:17:13.482Z,6.73
2022-11-28T07:19:40.487Z,6.27
2022-11-28T07:22:07.595Z,5.00
2022-11-28T07:24:34.331Z,5.90
2022-11-28T07:27:01.044Z,5.20
2022-11-28T07:29:35.782Z,6.00
2022-11-28T07:32:03.484Z,6.03
2022-11-28T07:34:30.207Z,6.53
2022-11-28T07:36:56.995Z,7.37
2022-11-28T07:39:23.690Z,35.57
2022-11-28T07:41:50.419Z,5.40
2022-11-28T07:44:18.148Z,12.37
2022-11-28T07:46:45.764Z,12.77
2022-11-28T07:49:13.508Z,5.40
2022-11-28T07:51:40.704Z,7.47
2022-11-28T07:54:07.746Z,10.13
2022-11-28T07:57:04.473Z,8.37
2022-11-28T07:59:22.756Z,5.93
2022-11-28T08:01:49.437Z,6.40
2022-11-28T08:04:16.229Z,4.80
2022-11-28T08:06:44.376Z,4.30
2022-11-28T08:09:12.191Z,3.63
2022-11-28T08:11:38.827Z,4.13
2022-11-28T08:14:05.759Z,3.83
2022-11-28T08:16:32.606Z,3.90
2022-11-28T08:19:02.369Z,3.73
2022-11-28T08:21:30.712Z,3.00
2022-11-28T08:23:59.329Z,3.40
2022-11-28T08:26:30.392Z,2.80
2022-11-28T08:28:58.163Z,2.80
2022-11-28T08:31:26.674Z,2.53
2022-11-28T08:33:55.004Z,2.60
2022-11-28T08:36:22.182Z,2.30
2022-11-28T08:39:03.416Z,2.93
2022-11-28T08:41:36.028Z,2.50
2022-11-28T08:44:02.580Z,2.40
2022-11-28T08:46:29.263Z,2.33
2022-11-28T08:48:55.971Z,2.20
2022-11-28T08:51:29.002Z,2.30
2022-11-28T08:53:59.369Z,2.47
2022-11-28T08:56:26.568Z,2.57
2022-11-28T08:58:53.164Z,2.77
2022-11-28T09:01:21.316Z,2.00
2022-11-28T09:03:48.639Z,2.60
2022-11-28T09:06:16.100Z,2.80
2022-11-28T09:08:42.845Z,2.50
2022-11-28T09:11:11.094Z,4.13
2022-11-28T09:13:38.213Z,30.30
2022-11-28T09:16:05.317Z,2.20
2022-11-28T09:18:32.096Z,2.20
2022-11-28T09:20:59.849Z,2.37
2022-11-28T09:23:26.690Z,3.10
2022-11-28T09:25:53.389Z,2.03
2022-11-28T09:28:20.586Z,2.70
2022-11-28T09:30:47.526Z,2.50
2022-11-28T09:33:14.221Z,2.73
2022-11-28T09:35:40.894Z,2.73
2022-11-28T09:38:07.962Z,3.40
2022-11-28T09:40:39.094Z,2.20
2022-11-28T09:43:32.214Z,2.73
2022-11-28T09:46:00.602Z,2.23
2022-11-28T09:48:33.172Z,2.00
2022-11-28T09:51:03.701Z,2.03
2022-11-28T09:53:45.103Z,2.20
2022-11-28T09:56:15.808Z,1.87
2022-11-28T09:58:51.745Z,1.90
2022-11-28T10:01:26.515Z,2.10
2022-11-28T10:04:11.516Z,2.10
2022-11-28T10:06:55.668Z,2.00
2022-11-28T10:09:22.261Z,2.27
2022-11-28T10:11:51.940Z,1.93
2022-11-28T10:14:18.536Z,2.30
2022-11-28T10:17:04.132Z,2.30
2022-11-28T10:19:58.284Z,2.10
2022-11-28T10:22:40.275Z,2.13
2022-11-28T10:25:16.881Z,2.20
2022-11-28T10:27:43.516Z,2.50
2022-11-28T10:30:18.072Z,2.53
2022-11-28T10:32:47.278Z,2.30
2022-11-28T10:35:28.582Z,2.33
2022-11-28T10:37:55.638Z,2.60
2022-11-28T10:40:29.589Z,2.07
2022-11-28T10:43:02.052Z,2.33
2022-11-28T10:45:33.572Z,2.60
2022-11-28T10:48:37.147Z,2.93
2022-11-28T10:51:16.228Z,2.90
2022-11-28T10:53:45.919Z,3.30
2022-11-28T10:56:27.947Z,3.10
2022-11-28T10:59:13.230Z,3.93
2022-11-28T11:01:43.744Z,4.10
2022-11-28T11:04:17.701Z,4.03
2022-11-28T11:07:06.858Z,3.77
2022-11-28T11:09:33.569Z,3.20
2022-11-28T11:12:03.113Z,3.20
2022-11-28T11:14:43.148Z,3.20
2022-11-28T11:17:24.353Z,3.03
2022-11-28T11:19:51.019Z,3.10
2022-11-28T11:22:22.145Z,2.60
2022-11-28T11:25:05.830Z,4.73
2022-11-28T11:27:32.818Z,7.10
2022-11-28T11:29:59.475Z,4.00
2022-11-28T11:32:26.138Z,3.63
2022-11-28T11:34:53.603Z,3.03
2022-11-28T11:37:29.096Z,2.70
2022-11-28T11:39:55.782Z,2.10
2022-11-28T11:42:23.617Z,2.30
2022-11-28T11:44:50.767Z,2.00
2022-11-28T11:47:17.517Z,2.47
2022-11-28T11:49:44.491Z,2.03
2022-11-28T11:52:14.604Z,2.30
2022-11-28T11:54:47.341Z,2.30
2022-11-28T12:00:10.680Z,2.10
2022-11-28T12:02:42.102Z,2.23
2022-11-28T12:05:13.676Z,2.13
2022-11-28T12:07:40.473Z,2.17
2022-11-28T12:10:10.507Z,2.40
2022-11-28T12:12:37.886Z,2.60
2022-11-28T12:15:04.746Z,2.17
2022-11-28T12:17:58.365Z,2.20
2022-11-28T12:20:43.216Z,2.10
2022-11-28T12:23:14.319Z,1.90
2022-11-28T12:25:43.713Z,2.30
2022-11-28T12:28:32.511Z,2.10
2022-11-28T12:31:08.477Z,2.10
2022-11-28T12:33:44.214Z,2.30
2022-11-28T12:36:18.856Z,2.60
2022-11-28T12:39:01.310Z,2.63
2022-11-28T12:41:32.610Z,2.17
2022-11-28T12:44:25.303Z,2.27
2022-11-28T12:47:10.955Z,2.03
2022-11-28T12:49:47.077Z,2.27
2022-11-28T12:52:13.886Z,2.37
2022-11-28T12:54:40.509Z,2.50
2022-11-28T12:57:07.064Z,2.70
2022-11-28T12:59:40.948Z,2.80
2022-11-28T13:02:26.692Z,2.93
2022-11-28T13:05:12.375Z,2.90
2022-11-28T13:07:57.665Z,3.13
2022-11-28T13:10:26.966Z,2.97
2022-11-28T13:12:56.649Z,3.23
2022-11-28T13:15:42.146Z,2.70
2022-11-28T13:18:24.179Z,3.50
2022-11-28T13:21:20.167Z,3.57
2022-11-28T13:24:09.573Z,3.50
2022-11-28T13:26:48.436Z,4.03
2022-11-28T13:29:15.017Z,4.50
2022-11-28T13:31:58.786Z,4.80
2022-11-28T13:34:28.733Z,4.73
2022-11-28T13:39:51.832Z,6.00
2022-11-28T13:45:32.375Z,4.97
2022-11-28T13:48:00.419Z,5.10
2022-11-28T13:50:39.711Z,5.70
2022-11-28T13:53:06.289Z,5.50
2022-11-28T13:55:53.222Z,6.00
2022-11-28T13:58:22.591Z,14.53
2022-11-28T14:01:18.444Z,19.47
2022-11-28T14:03:48.222Z,7.10
2022-11-28T14:06:36.307Z,7.80
2022-11-28T14:09:16.827Z,7.00
2022-11-28T14:11:47.458Z,6.67
2022-11-28T14:14:33.339Z,6.10
2022-11-28T14:17:24.225Z,6.00
2022-11-28T14:20:09.666Z,6.03
2022-11-28T14:22:36.408Z,5.67
2022-11-28T14:25:09.249Z,6.00
2022-11-28T14:27:38.342Z,6.40
2022-11-28T14:30:06.841Z,6.50
2022-11-28T14:32:39.584Z,6.67
2022-11-28T14:35:12.082Z,6.13
2022-11-28T14:37:50.643Z,6.23
2022-11-28T14:40:36.361Z,6.13
2022-11-28T14:43:32.501Z,6.23
2022-11-28T14:46:19.597Z,6.00
2022-11-28T14:48:59.569Z,6.33
2022-11-28T14:51:45.778Z,6.87
2022-11-28T14:54:26.917Z,6.90
2022-11-28T14:56:59.483Z,7.67
2022-11-28T14:59:32.986Z,6.93
2022-11-28T15:02:12.964Z,7.00
2022-11-28T15:04:44.458Z,6.70
2022-11-28T15:07:21.722Z,7.70
2022-11-28T15:10:09.627Z,6.90
2022-11-28T15:12:54.731Z,6.93
2022-11-28T15:15:22.759Z,7.67
2022-11-28T15:17:51.481Z,7.93
2022-11-28T15:20:29.519Z,7.80
2022-11-28T15:22:56.414Z,8.00
2022-11-28T15:25:26.503Z,7.83
2022-11-28T15:27:54.163Z,8.07
2022-11-28T15:30:26.798Z,7.70
2022-11-28T15:32:57.169Z,8.07
2022-11-28T15:35:23.996Z,7.87
2022-11-28T15:37:53.263Z,7.67
2022-11-28T15:40:21.922Z,7.10
2022-11-28T15:42:49.133Z,7.43
2022-11-28T15:45:23.722Z,7.30
2022-11-28T15:47:51.319Z,7.70
2022-11-28T15:50:23.028Z,10.07
2022-11-28T15:53:00.176Z,10.00
2022-11-28T15:55:31.134Z,8.40
2022-11-28T15:58:11.892Z,8.43
2022-11-28T16:00:41.356Z,7.73
2022-11-28T16:03:12.378Z,8.27
2022-11-28T16:05:39.299Z,8.47
2022-11-28T16:08:11.986Z,8.00
2022-11-28T16:10:40.042Z,8.57
2022-11-28T16:13:11.405Z,8.20
2022-11-28T16:15:38.397Z,9.30
2022-11-28T16:18:07.135Z,8.63
2022-11-28T16:20:34.797Z,9.43
2022-11-28T16:23:07.341Z,9.60
2022-11-28T16:25:34.026Z,9.33
2022-11-28T16:28:00.672Z,9.30
2022-11-28T16:30:27.355Z,8.87
2022-11-28T16:32:55.619Z,9.07
2022-11-28T16:35:27.811Z,9.17
2022-11-28T16:38:03.688Z,9.40
2022-11-28T16:40:30.952Z,9.30
2022-11-28T16:42:58.825Z,8.73
2022-11-28T16:45:27.314Z,9.37
2022-11-28T16:48:00.752Z,9.77
2022-11-28T16:50:27.589Z,9.13
2022-11-28T16:52:55.143Z,9.67
2022-11-28T16:55:31.757Z,9.30
2022-11-28T16:58:07.481Z,10.10
2022-11-28T17:00:34.621Z,9.70
2022-11-28T17:03:01.248Z,9.87
2022-11-28T17:05:27.797Z,11.00
2022-11-28T17:07:54.634Z,9.80
2022-11-28T17:10:21.336Z,10.33
2022-11-28T17:12:47.968Z,9.83
2022-11-28T17:15:16.441Z,9.93
2022-11-28T17:17:43.202Z,9.87
2022-11-28T17:20:11.611Z,10.17
2022-11-28T17:22:41.349Z,10.47
2022-11-28T17:25:13.733Z,10.83
2022-11-28T17:27:40.663Z,11.07
2022-11-28T17:30:07.776Z,10.80
2022-11-28T17:32:34.566Z,10.83
2022-11-28T17:35:04.072Z,11.43
2022-11-28T17:37:31.468Z,11.17
2022-11-28T17:40:18.127Z,10.83
2022-11-28T17:42:46.137Z,11.53
2022-11-28T17:45:14.702Z,11.20
2022-11-28T17:47:42.870Z,11.13
2022-11-28T17:50:11.431Z,10.40
2022-11-28T17:52:38.106Z,11.00
2022-11-28T17:55:07.267Z,11.27
2022-11-28T17:57:34.874Z,11.27
2022-11-28T18:00:01.691Z,10.17
2022-11-28T18:02:29.183Z,11.17
2022-11-28T18:04:55.907Z,10.57
2022-11-28T18:07:22.922Z,11.17
2022-11-28T18:09:49.622Z,10.97
2022-11-28T18:12:16.228Z,11.67
2022-11-28T18:14:43.030Z,11.33
2022-11-28T18:17:09.695Z,11.73
2022-11-28T18:19:36.407Z,12.73
2022-11-28T18:22:03.127Z,12.27
2022-11-28T18:24:29.961Z,11.80
2022-11-28T18:26:56.832Z,11.77
2022-11-28T18:29:23.485Z,10.20
2022-11-28T18:31:50.110Z,11.37
2022-11-28T18:34:16.907Z,11.83
2022-11-28T18:36:43.583Z,11.40
2022-11-28T18:39:12.550Z,11.50
2022-11-28T18:41:40.045Z,11.43
2022-11-28T18:44:07.847Z,13.57
2022-11-28T18:46:34.627Z,13.53
2022-11-28T18:49:01.809Z,12.00
2022-11-28T18:51:29.594Z,11.00
2022-11-28T18:53:56.633Z,12.17
2022-11-28T18:56:23.750Z,11.77
2022-11-28T18:58:53.881Z,12.07
2022-11-28T19:01:22.568Z,11.50
2022-11-28T19:03:49.958Z,11.47
2022-11-28T19:06:18.335Z,12.30
2022-11-28T19:08:45.887Z,11.67
2022-11-28T19:11:14.556Z,11.80
2022-11-28T19:13:42.458Z,12.47
2022-11-28T19:16:10.936Z,13.07
2022-11-28T19:18:37.912Z,13.10
2022-11-28T19:21:08.020Z,14.17
2022-11-28T19:23:34.706Z,14.60
2022-11-28T19:26:02.471Z,16.30
2022-11-28T19:28:29.612Z,21.43
2022-11-28T19:30:57.621Z,22.60
2022-11-28T19:33:24.497Z,19.57
2022-11-28T19:35:51.069Z,16.77
2022-11-28T19:38:17.847Z,15.37
2022-11-28T19:40:44.619Z,14.10
2022-11-28T19:43:11.315Z,12.93
2022-11-28T19:45:37.929Z,13.77
2022-11-28T19:48:04.985Z,12.60
2022-11-28T19:50:31.861Z,12.73
2022-11-28T19:52:58.505Z,14.03
2022-11-28T19:55:25.291Z,14.37
2022-11-28T19:57:52.870Z,14.20
2022-11-28T20:00:19.830Z,13.40
2022-11-28T20:02:47.170Z,12.80
2022-11-28T20:05:13.904Z,12.83
2022-11-28T20:07:40.625Z,14.50
2022-11-28T20:10:08.239Z,13.83
2022-11-28T20:12:36.242Z,18.33
2022-11-28T20:15:02.910Z,19.60
2022-11-28T20:17:29.634Z,18.07
2022-11-28T20:19:58.436Z,21.30
2022-11-28T20:22:25.752Z,20.97
2022-11-28T20:24:52.650Z,32.47
2022-11-28T20:27:19.253Z,15.27
2022-11-28T20:29:46.640Z,18.27
2022-11-28T20:32:13.470Z,13.80
2022-11-28T20:34:40.120Z,13.20
2022-11-28T20:37:06.818Z,12.10
2022-11-28T20:39:33.428Z,12.27
2022-11-28T20:42:00.018Z,12.37
2022-11-28T20:44:27.719Z,12.10
2022-11-28T20:46:54.458Z,13.30
2022-11-28T20:49:21.196Z,12.97
2022-11-28T20:51:48.184Z,12.93
2022-11-28T20:54:14.839Z,12.63
2022-11-28T20:57:05.476Z,12.47
2022-11-28T20:59:29.627Z,12.20
2022-11-28T21:01:56.242Z,12.50
2022-11-28T21:04:22.960Z,13.10
2022-11-28T21:06:49.667Z,12.10
2022-11-28T21:09:18.035Z,12.20
2022-11-28T21:12:01.031Z,12.27
2022-11-28T21:14:28.698Z,12.30
2022-11-28T21:16:55.656Z,12.53
2022-11-28T21:19:22.527Z,12.20
2022-11-28T21:21:49.115Z,11.73
2022-11-28T21:24:15.780Z,13.93
2022-11-28T21:26:47.872Z,13.57
2022-11-28T21:29:18.456Z,12.27
2022-11-28T21:31:45.527Z,12.40
2022-11-28T21:34:14.653Z,12.27
2022-11-28T21:36:41.822Z,12.43
2022-11-28T21:39:11.626Z,12.77
2022-11-28T21:41:38.249Z,12.10
2022-11-28T21:44:04.883Z,11.77
2022-11-28T21:46:31.437Z,12.53
2022-11-28T21:48:58.764Z,11.93
2022-11-28T21:51:25.828Z,12.33
2022-11-28T21:53:52.485Z,12.10
2022-11-28T21:56:19.899Z,13.43
2022-11-28T21:58:47.541Z,12.23
2022-11-28T22:01:14.756Z,12.57
2022-11-28T22:03:43.763Z,13.23
2022-11-28T22:06:10.859Z,11.90
2022-11-28T22:08:37.827Z,12.07
2022-11-28T22:11:08.451Z,12.53
2022-11-28T22:13:35.677Z,11.53
2022-11-28T22:16:07.854Z,12.10
2022-11-28T22:18:34.772Z,11.77
2022-11-28T22:21:06.478Z,11.37
2022-11-28T22:23:37.052Z,12.00
2022-11-28T22:26:04.440Z,11.07
2022-11-28T22:28:34.819Z,10.80
2022-11-28T22:31:09.316Z,11.20
2022-11-28T22:33:37.729Z,13.10
2022-11-28T22:36:08.644Z,11.43
2022-11-28T22:38:35.488Z,11.37
2022-11-28T22:41:08.716Z,11.27
2022-11-28T22:43:35.999Z,10.93
2022-11-28T22:46:02.998Z,11.20
2022-11-28T22:48:30.725Z,12.13
2022-11-28T22:50:58.078Z,12.40
2022-11-28T22:53:24.946Z,11.13
2022-11-28T22:55:51.720Z,11.77
2022-11-28T22:58:18.801Z,11.20
2022-11-28T23:00:45.490Z,11.67
2022-11-28T23:03:12.307Z,13.30
2022-11-28T23:05:39.555Z,12.23
2022-11-28T23:08:07.697Z,12.47
2022-11-28T23:10:36.473Z,12.10
2022-11-28T23:13:03.318Z,12.27
2022-11-28T23:15:29.922Z,12.77
2022-11-28T23:17:56.934Z,12.07
2022-11-28T23:20:24.691Z,12.67
2022-11-28T23:22:51.574Z,11.33
2022-11-28T23:25:18.317Z,11.73
2022-11-28T23:27:44.977Z,12.13
2022-11-28T23:30:12.257Z,10.93
2022-11-28T23:32:38.874Z,11.80
2022-11-28T23:35:05.763Z,11.93
2022-11-28T23:37:36.482Z,11.10
2022-11-28T23:40:03.753Z,11.53
2022-11-28T23:42:30.486Z,10.83
2022-11-28T23:44:57.087Z,11.50
2022-11-28T23:47:23.690Z,10.87
2022-11-28T23:49:50.352Z,10.53
2022-11-28T23:52:16.982Z,11.13
2022-11-28T23:54:43.896Z,11.37
2022-11-28T23:57:10.570Z,12.47
2022-11-28T23:59:37.134Z,11.60
